Terminal Aerodrome Forecast
Issued by NWS

Home | Current Version | Previous Version | Text Only | Print | Product List | Glossary On
Versions: 1 2 3 4 5 6 7 8 9 10 11 12 13 14 15 16 17 18 19 20 21 22 23 24 25
000
FTUS45 KGJT 290520
TAFEGE
TAF
KEGE 290520Z 2906/3006 VRB03KT P6SM VCSH OVC120
      TEMPO 2906/2910 -SHRA
     FM291200 VRB02KT P6SM VCSH BKN150
     FM291800 VRB03KT P6SM SCT100 BKN150
     FM292100 22010KT P6SM VCTS SCT100CB BKN120
      TEMPO 2921/2924 3SM -TSRA SCT060CB
     FM300000 26010KT P6SM -SHRA OVC060
      AMD LTD TO CLD VIS AND WIND TIL 291300=

USA.gov is the U.S. government's official web portal to all federal, state and local government web resources and services.